LSGG/GVA METAR and TAF weather

Enter ICAO airport designator
Station Type Date Time Source
LSGG METAR 2023/06/01 09:50 UTC NOAA

LSGG 010950Z 04007KT 010V070 9999 FEW048 21/10 Q1018 NOSIG


Station Type Date Time Source
LSGG Decoded METAR 2023/06/01 09:50 UTC NOAA

Geneve-Cointrin, Switzerland (LSGG) 46-15N 006-08E 416M
Jun 01, 2023 - 05:50 AM EDT / 2023.06.01 0950 UTC
Wind: from the NE (040 degrees) at 8 MPH (7 KT) (direction variable):0
Visibility: greater than 7 mile(s):0
Sky conditions: mostly clear
Temperature: 69 F (21 C)
Dew Point: 50 F (10 C)
Relative Humidity: 49%
Pressure (altimeter): 30.06 in. Hg (1018 hPa)
ob: LSGG 010950Z 04007KT 010V070 9999 FEW048 21/10 Q1018 NOSIG
cycle: 10

Station Type Date Time Source
LSGG TAF 2023/06/01 09:36 UTC NOAA

TAF LSGG 010825Z 0109/0215 04008KT 9999 FEW030 TX25/0115Z TN13/0204Z TX25/0215Z PROB30
TEMPO 0112/0118 SHRA FEW050TCU
BECMG 0120/0122 VRB02KT
BECMG 0208/0210 04008KT

Example: see airport list